createdAt,value
2023-02-08T00:00:10.862Z,97.35
2023-02-08T00:02:37.835Z,97.49
2023-02-08T00:05:05.511Z,97.31
2023-02-08T00:07:32.409Z,97.23
2023-02-08T00:09:59.191Z,96.47
2023-02-08T00:12:26.173Z,96.66
2023-02-08T00:14:53.034Z,97.12
2023-02-08T00:17:20.194Z,96.41
2023-02-08T00:19:47.006Z,96.67
2023-02-08T00:22:14.010Z,96.61
2023-02-08T00:24:40.894Z,96.89
2023-02-08T00:27:09.361Z,96.63
2023-02-08T00:29:37.266Z,96.66
2023-02-08T00:32:05.079Z,96.77
2023-02-08T00:34:31.926Z,96.43
2023-02-08T00:36:59.210Z,97.05
2023-02-08T00:39:25.958Z,96.19
2023-02-08T00:41:52.976Z,96.25
2023-02-08T00:44:19.906Z,97.02
2023-02-08T00:46:46.745Z,96.89
2023-02-08T00:49:13.582Z,97.28
2023-02-08T00:51:40.501Z,97.39
2023-02-08T00:54:07.387Z,97.18
2023-02-08T00:56:34.446Z,97.78
2023-02-08T00:59:01.220Z,98.59
2023-02-08T01:01:28.077Z,98.06
2023-02-08T01:03:54.872Z,98.62
2023-02-08T01:06:21.929Z,98.48
2023-02-08T01:08:48.837Z,98.69
2023-02-08T01:11:22.603Z,98.62
2023-02-08T01:13:50.098Z,99.08
2023-02-08T01:16:19.733Z,99.09
2023-02-08T01:18:48.693Z,98.60
2023-02-08T01:21:21.547Z,98.13
2023-02-08T01:23:49.171Z,98.55
2023-02-08T01:26:18.006Z,98.67
2023-02-08T01:28:46.348Z,98.45
2023-02-08T01:31:17.840Z,98.06
2023-02-08T01:33:45.428Z,98.68
2023-02-08T01:36:13.120Z,99.61
2023-02-08T01:38:42.792Z,99.59
2023-02-08T01:41:15.348Z,99.42
2023-02-08T01:44:06.989Z,99.90
2023-02-08T01:46:36.772Z,100.00
2023-02-08T01:49:21.537Z,100.00
2023-02-08T01:51:54.076Z,100.00
2023-02-08T01:54:24.170Z,100.00
2023-02-08T01:56:52.464Z,100.00
2023-02-08T01:59:36.475Z,100.00
2023-02-08T02:02:05.544Z,100.00
2023-02-08T02:04:32.454Z,100.00
2023-02-08T02:07:01.856Z,100.00
2023-02-08T02:09:34.720Z,100.00
2023-02-08T02:12:02.408Z,100.00
2023-02-08T02:14:29.248Z,100.00
2023-02-08T02:16:56.848Z,100.00
2023-02-08T02:19:37.363Z,100.00
2023-02-08T02:22:16.398Z,100.00
2023-02-08T02:25:16.878Z,100.00
2023-02-08T02:28:20.729Z,100.00
2023-02-08T02:31:15.277Z,100.00
2023-02-08T02:34:05.170Z,100.00
2023-02-08T02:37:02.815Z,100.00
2023-02-08T02:39:47.234Z,100.00
2023-02-08T02:42:53.341Z,100.00
2023-02-08T02:45:29.525Z,100.00
2023-02-08T02:48:11.108Z,100.00
2023-02-08T02:51:17.187Z,100.00
2023-02-08T02:53:59.496Z,100.00
2023-02-08T02:56:31.761Z,100.00
2023-02-08T02:59:04.154Z,100.00
2023-02-08T03:01:32.867Z,100.00
2023-02-08T03:03:59.844Z,100.00
2023-02-08T03:06:49.361Z,100.00
2023-02-08T03:09:28.710Z,100.00
2023-02-08T03:12:21.881Z,100.00
2023-02-08T03:14:50.354Z,100.00
2023-02-08T03:17:46.015Z,99.18
2023-02-08T03:20:21.494Z,96.92
2023-02-08T03:23:10.161Z,96.72
2023-02-08T03:25:52.113Z,96.23
2023-02-08T03:28:30.533Z,95.66
2023-02-08T03:31:12.429Z,94.94
2023-02-08T03:34:14.238Z,95.17
2023-02-08T03:36:50.431Z,93.77
2023-02-08T03:39:24.766Z,92.74
2023-02-08T03:41:55.779Z,93.42
2023-02-08T03:44:31.112Z,93.32
2023-02-08T03:47:05.417Z,91.93
2023-02-08T03:49:35.887Z,92.07
2023-02-08T03:52:06.699Z,91.55
2023-02-08T03:54:38.671Z,90.82
2023-02-08T03:57:26.523Z,90.00
2023-02-08T04:00:01.552Z,89.07
2023-02-08T04:02:48.997Z,89.75
2023-02-08T04:05:16.599Z,89.67
2023-02-08T04:07:43.432Z,89.25
2023-02-08T04:10:10.518Z,88.69
2023-02-08T04:12:37.330Z,88.67
2023-02-08T04:15:04.548Z,88.67
2023-02-08T04:17:32.354Z,88.60
2023-02-08T04:20:00.496Z,87.87
2023-02-08T04:22:27.529Z,88.34
2023-02-08T04:24:54.473Z,87.75
2023-02-08T04:27:21.336Z,88.53
2023-02-08T04:29:48.520Z,87.32
2023-02-08T04:32:15.349Z,87.67
2023-02-08T04:34:42.252Z,88.79
2023-02-08T04:37:09.602Z,89.16
2023-02-08T04:39:36.829Z,88.97
2023-02-08T04:42:03.929Z,88.28
2023-02-08T04:44:32.927Z,87.32
2023-02-08T04:47:00.532Z,87.96
2023-02-08T04:49:27.782Z,88.54
2023-02-08T04:51:56.931Z,88.95
2023-02-08T04:54:24.204Z,89.13
2023-02-08T04:56:51.336Z,88.98
2023-02-08T04:59:19.110Z,88.04
2023-02-08T05:01:45.963Z,88.60
2023-02-08T05:04:12.867Z,89.02
2023-02-08T05:06:39.925Z,89.07
2023-02-08T05:09:09.353Z,88.67
2023-02-08T05:11:36.968Z,88.08
2023-02-08T05:14:04.507Z,87.51
2023-02-08T05:16:31.980Z,87.76
2023-02-08T05:18:59.052Z,87.92
2023-02-08T05:21:25.883Z,87.53
2023-02-08T05:23:52.844Z,87.41
2023-02-08T05:26:20.555Z,87.42
2023-02-08T05:28:47.934Z,86.76
2023-02-08T05:31:21.827Z,85.74
2023-02-08T05:33:50.049Z,85.94
2023-02-08T05:36:17.628Z,86.25
2023-02-08T05:38:44.832Z,85.70
2023-02-08T05:41:12.572Z,85.97
2023-02-08T05:43:39.494Z,85.38
2023-02-08T05:46:06.358Z,85.18
2023-02-08T05:48:34.378Z,85.15
2023-02-08T05:51:01.358Z,85.47
2023-02-08T05:53:28.326Z,85.43
2023-02-08T05:55:58.108Z,85.12
2023-02-08T05:58:25.995Z,84.27
2023-02-08T06:00:53.602Z,84.74
2023-02-08T06:03:20.677Z,84.27
2023-02-08T06:05:48.127Z,84.16
2023-02-08T06:08:15.850Z,83.90
2023-02-08T06:10:43.377Z,82.39
2023-02-08T06:13:10.129Z,82.99
2023-02-08T06:15:37.845Z,82.33
2023-02-08T06:18:04.805Z,81.27
2023-02-08T06:20:31.706Z,81.75
2023-02-08T06:22:58.600Z,82.37
2023-02-08T06:25:25.496Z,81.67
2023-02-08T06:27:52.304Z,80.76
2023-02-08T06:30:19.482Z,79.67
2023-02-08T06:32:46.411Z,79.65
2023-02-08T06:35:13.801Z,79.56
2023-02-08T06:37:40.647Z,79.42
2023-02-08T06:40:09.066Z,79.29
2023-02-08T06:42:36.188Z,80.04
2023-02-08T06:45:03.181Z,79.46
2023-02-08T06:47:30.638Z,78.26
2023-02-08T06:49:57.529Z,78.48
2023-02-08T06:52:24.657Z,78.68
2023-02-08T06:54:51.434Z,78.63
2023-02-08T06:57:18.248Z,78.75
2023-02-08T06:59:46.218Z,77.39
2023-02-08T07:02:15.920Z,77.97
2023-02-08T07:04:43.919Z,77.74
2023-02-08T07:07:12.654Z,78.06
2023-02-08T07:09:39.974Z,78.62
2023-02-08T07:12:07.008Z,79.19
2023-02-08T07:14:40.516Z,79.16
2023-02-08T07:17:08.143Z,78.67
2023-02-08T07:19:34.979Z,77.96
2023-02-08T07:22:08.350Z,78.16
2023-02-08T07:24:40.462Z,77.65
2023-02-08T07:27:09.609Z,79.74
2023-02-08T07:29:36.776Z,79.43
2023-02-08T07:32:04.990Z,79.26
2023-02-08T07:34:35.136Z,79.51
2023-02-08T07:37:02.543Z,79.71
2023-02-08T07:39:31.378Z,80.59
2023-02-08T07:41:59.000Z,81.12
2023-02-08T07:44:29.294Z,81.66
2023-02-08T07:46:56.300Z,82.65
2023-02-08T07:49:23.249Z,82.12
2023-02-08T07:51:50.602Z,81.66
2023-02-08T07:54:17.458Z,81.11
2023-02-08T07:56:44.801Z,81.22
2023-02-08T07:59:11.735Z,80.51
2023-02-08T08:01:39.135Z,80.44
2023-02-08T08:04:06.416Z,81.05
2023-02-08T08:06:33.745Z,80.62
2023-02-08T08:09:01.521Z,80.46
2023-02-08T08:11:28.448Z,81.90
2023-02-08T08:13:55.349Z,82.51
2023-02-08T08:16:22.846Z,82.24
2023-02-08T08:18:50.962Z,82.46
2023-02-08T08:21:17.908Z,82.92
2023-02-08T08:23:45.045Z,82.50
2023-02-08T08:26:18.134Z,81.55
2023-02-08T08:28:46.877Z,81.19
2023-02-08T08:31:17.743Z,81.71
2023-02-08T08:33:45.268Z,82.26
2023-02-08T08:36:12.331Z,82.62
2023-02-08T08:38:41.194Z,83.08
2023-02-08T08:41:10.163Z,83.92
2023-02-08T08:43:37.174Z,83.17
2023-02-08T08:46:06.168Z,83.48
2023-02-08T08:48:34.952Z,83.90
2023-02-08T08:51:02.839Z,83.80
2023-02-08T08:53:30.322Z,83.44
2023-02-08T08:55:57.372Z,83.50
2023-02-08T08:58:24.290Z,81.89
2023-02-08T09:00:52.451Z,81.23
2023-02-08T09:03:19.287Z,80.59
2023-02-08T09:05:46.912Z,80.51
2023-02-08T09:08:14.250Z,81.72
2023-02-08T09:10:41.674Z,81.29
2023-02-08T09:13:09.152Z,78.74
2023-02-08T09:15:40.012Z,78.59
2023-02-08T09:18:07.189Z,77.97
2023-02-08T09:20:34.137Z,77.78
2023-02-08T09:23:01.690Z,77.58
2023-02-08T09:25:28.595Z,77.45
2023-02-08T09:27:55.422Z,75.84
2023-02-08T09:30:22.613Z,77.28
2023-02-08T09:32:49.660Z,76.75
2023-02-08T09:35:16.685Z,76.95
2023-02-08T09:37:43.935Z,78.60
2023-02-08T09:40:23.451Z,81.04
2023-02-08T09:43:09.193Z,84.18
2023-02-08T09:45:59.353Z,84.36
2023-02-08T09:48:34.992Z,81.74
2023-02-08T09:51:27.746Z,80.60
2023-02-08T09:54:03.131Z,80.54
2023-02-08T09:56:37.155Z,80.00
2023-02-08T09:59:04.306Z,79.33
2023-02-08T10:01:36.609Z,78.44
2023-02-08T10:04:36.701Z,78.20
2023-02-08T10:07:03.789Z,80.17
2023-02-08T10:09:30.654Z,82.15
2023-02-08T10:12:28.528Z,81.92
2023-02-08T10:15:23.088Z,81.56
2023-02-08T10:18:19.210Z,82.33
2023-02-08T10:21:23.133Z,82.48
2023-02-08T10:24:25.337Z,83.47
2023-02-08T10:27:17.042Z,81.98
2023-02-08T10:30:31.700Z,80.95
2023-02-08T10:33:02.632Z,80.59
2023-02-08T10:35:56.307Z,80.08
2023-02-08T10:38:44.225Z,80.51
2023-02-08T10:41:33.803Z,79.95
2023-02-08T10:44:13.459Z,80.64
2023-02-08T10:47:11.616Z,80.67
2023-02-08T10:49:59.896Z,83.84
2023-02-08T10:52:27.583Z,86.17
2023-02-08T10:54:58.269Z,86.03
2023-02-08T10:57:32.161Z,86.47
2023-02-08T11:00:27.057Z,86.44
2023-02-08T11:03:00.828Z,84.97
2023-02-08T11:05:37.615Z,82.86
2023-02-08T11:08:15.641Z,83.53
2023-02-08T11:11:00.310Z,82.44
2023-02-08T11:13:36.100Z,82.87
2023-02-08T11:16:06.512Z,82.38
2023-02-08T11:18:57.217Z,81.22
2023-02-08T11:21:33.769Z,81.27
2023-02-08T11:24:07.729Z,81.97
2023-02-08T11:26:37.472Z,82.81
2023-02-08T11:29:26.542Z,83.77
2023-02-08T11:31:58.193Z,84.44
2023-02-08T11:34:28.234Z,84.46
2023-02-08T11:36:57.458Z,85.84
2023-02-08T11:39:55.638Z,85.99
2023-02-08T11:42:27.460Z,86.66
2023-02-08T11:44:56.045Z,87.04
2023-02-08T11:47:35.283Z,88.19
2023-02-08T11:50:07.428Z,86.80
2023-02-08T11:52:39.604Z,84.76
2023-02-08T11:55:18.704Z,85.98
2023-02-08T11:57:58.039Z,85.03
2023-02-08T12:00:28.821Z,85.65
2023-02-08T12:03:01.856Z,85.60
2023-02-08T12:05:43.142Z,86.48
2023-02-08T12:08:38.164Z,85.24
2023-02-08T12:11:15.013Z,85.70
2023-02-08T12:13:51.157Z,86.69
2023-02-08T12:16:20.963Z,88.95
2023-02-08T12:19:19.361Z,90.86
2023-02-08T12:21:50.167Z,92.86
2023-02-08T12:24:23.140Z,93.20
2023-02-08T12:27:20.084Z,94.32
2023-02-08T12:30:01.632Z,94.95
2023-02-08T12:32:49.702Z,95.06
2023-02-08T12:35:41.710Z,93.17
2023-02-08T12:38:46.830Z,93.20
2023-02-08T12:41:28.103Z,94.37
2023-02-08T12:44:16.463Z,92.30
2023-02-08T12:47:25.494Z,91.53
2023-02-08T12:50:20.022Z,90.72
2023-02-08T12:53:25.726Z,93.03
2023-02-08T12:55:56.464Z,91.67
2023-02-08T12:58:45.465Z,92.28
2023-02-08T13:01:22.956Z,90.94
2023-02-08T13:04:05.072Z,91.75
2023-02-08T13:06:40.327Z,91.18
2023-02-08T13:09:35.664Z,90.16
2023-02-08T13:12:12.725Z,90.02
2023-02-08T13:14:51.154Z,88.13
2023-02-08T13:17:22.864Z,87.01
2023-02-08T13:20:11.138Z,86.91
2023-02-08T13:22:41.997Z,87.13
2023-02-08T13:25:17.095Z,86.12
2023-02-08T13:27:44.266Z,85.66
2023-02-08T13:30:22.143Z,85.71
2023-02-08T13:32:51.848Z,85.19
2023-02-08T13:35:24.723Z,84.91
2023-02-08T13:37:58.762Z,84.64
2023-02-08T13:40:29.900Z,85.67
2023-02-08T13:43:02.275Z,86.00
2023-02-08T13:45:43.053Z,86.27
2023-02-08T13:48:16.649Z,86.17
2023-02-08T13:50:56.346Z,85.58
2023-02-08T13:53:38.873Z,84.75
2023-02-08T13:56:09.941Z,84.40
2023-02-08T13:58:43.131Z,84.65
2023-02-08T14:01:17.888Z,84.98
2023-02-08T14:04:04.960Z,85.19
2023-02-08T14:06:33.892Z,85.73
2023-02-08T14:09:29.767Z,85.20
2023-02-08T14:12:06.483Z,84.57
2023-02-08T14:14:38.708Z,85.06
2023-02-08T14:17:18.090Z,85.08
2023-02-08T14:19:55.861Z,85.56
2023-02-08T14:22:23.237Z,85.45
2023-02-08T14:25:02.029Z,85.35
2023-02-08T14:27:39.132Z,85.22
2023-02-08T14:30:21.665Z,85.33
2023-02-08T14:32:53.030Z,85.25
2023-02-08T14:35:26.376Z,85.86
2023-02-08T14:38:36.337Z,86.35
2023-02-08T14:41:04.328Z,87.45
2023-02-08T14:43:33.828Z,86.81
2023-02-08T14:46:38.012Z,86.63
2023-02-08T14:49:19.267Z,86.24
2023-02-08T14:51:54.247Z,86.16
2023-02-08T14:54:50.059Z,85.94
2023-02-08T14:57:25.717Z,86.01
2023-02-08T14:59:53.959Z,85.22
2023-02-08T15:02:26.557Z,85.46
2023-02-08T15:04:53.752Z,86.93
2023-02-08T15:07:31.270Z,87.22
2023-02-08T15:10:03.732Z,87.38
2023-02-08T15:12:40.325Z,87.45
2023-02-08T15:15:24.494Z,87.67
2023-02-08T15:17:53.674Z,88.33
2023-02-08T15:20:22.226Z,88.14
2023-02-08T15:22:49.101Z,87.86
2023-02-08T15:25:22.787Z,87.85
2023-02-08T15:27:53.818Z,87.94
2023-02-08T15:30:24.682Z,87.76
2023-02-08T15:32:52.178Z,87.40
2023-02-08T15:35:20.756Z,87.77
2023-02-08T15:37:47.931Z,87.88
2023-02-08T15:40:32.676Z,87.33
2023-02-08T15:43:20.850Z,87.70
2023-02-08T15:46:00.503Z,87.77
2023-02-08T15:48:29.302Z,87.54
2023-02-08T15:50:57.812Z,87.56
2023-02-08T15:53:27.471Z,87.65
2023-02-08T15:56:04.439Z,87.87
2023-02-08T15:58:36.621Z,88.01
2023-02-08T16:01:07.544Z,87.72
2023-02-08T16:03:36.843Z,88.17
2023-02-08T16:06:06.710Z,88.17
2023-02-08T16:08:42.184Z,88.82
2023-02-08T16:11:21.279Z,88.12
2023-02-08T16:13:51.777Z,87.71
2023-02-08T16:16:27.004Z,88.27
2023-02-08T16:19:21.591Z,88.11
2023-02-08T16:21:51.718Z,88.04
2023-02-08T16:24:25.647Z,87.58
2023-02-08T16:27:06.071Z,87.34
2023-02-08T16:29:39.270Z,86.39
2023-02-08T16:32:32.100Z,86.07
2023-02-08T16:35:01.490Z,85.22
2023-02-08T16:37:31.455Z,85.76
2023-02-08T16:39:59.308Z,85.67
2023-02-08T16:42:40.083Z,84.53
2023-02-08T16:45:19.835Z,85.09
2023-02-08T16:47:48.339Z,84.90
2023-02-08T16:50:29.737Z,84.58
2023-02-08T16:53:01.316Z,84.34
2023-02-08T16:55:31.958Z,83.96
2023-02-08T16:57:59.639Z,83.44
2023-02-08T17:00:32.434Z,83.36
2023-02-08T17:03:00.049Z,83.28
2023-02-08T17:05:31.012Z,83.73
2023-02-08T17:07:59.740Z,84.55
2023-02-08T17:10:29.745Z,83.93
2023-02-08T17:13:13.483Z,83.58
2023-02-08T17:15:46.829Z,83.74
2023-02-08T17:18:14.398Z,84.04
2023-02-08T17:20:41.608Z,83.39
2023-02-08T17:23:09.613Z,82.93
2023-02-08T17:25:36.983Z,81.89
2023-02-08T17:28:17.246Z,81.46
2023-02-08T17:30:45.299Z,81.50
2023-02-08T17:33:18.563Z,81.87
2023-02-08T17:35:47.912Z,81.12
2023-02-08T17:38:15.583Z,79.95
2023-02-08T17:40:43.890Z,80.87
2023-02-08T17:43:12.376Z,81.00
2023-02-08T17:45:41.853Z,81.64
2023-02-08T17:48:09.309Z,80.93
2023-02-08T17:50:36.681Z,81.81
2023-02-08T17:53:04.160Z,81.80
2023-02-08T17:55:31.223Z,81.17
2023-02-08T17:58:03.592Z,81.10
2023-02-08T18:00:30.570Z,81.32
2023-02-08T18:03:00.519Z,81.74
2023-02-08T18:05:28.892Z,81.13
2023-02-08T18:07:56.795Z,80.92
2023-02-08T18:10:25.549Z,81.30
2023-02-08T18:12:52.425Z,81.38
2023-02-08T18:15:22.344Z,81.77
2023-02-08T18:17:53.803Z,81.96
2023-02-08T18:20:20.806Z,82.24
2023-02-08T18:22:47.743Z,82.16
2023-02-08T18:25:16.210Z,81.69
2023-02-08T18:27:43.495Z,82.47
2023-02-08T18:30:11.708Z,82.21
2023-02-08T18:32:38.524Z,81.81
2023-02-08T18:35:07.571Z,81.83
2023-02-08T18:37:36.145Z,81.47
2023-02-08T18:40:04.710Z,81.42
2023-02-08T18:42:34.539Z,81.78
2023-02-08T18:45:19.228Z,81.91
2023-02-08T18:48:01.091Z,82.28
2023-02-08T18:50:29.272Z,81.86
2023-02-08T18:52:56.564Z,81.53
2023-02-08T18:55:23.922Z,81.76
2023-02-08T18:58:00.531Z,82.03
2023-02-08T19:00:27.561Z,81.63
2023-02-08T19:02:54.507Z,81.78
2023-02-08T19:05:21.455Z,82.40
2023-02-08T19:07:48.385Z,82.01
2023-02-08T19:10:15.265Z,81.93
2023-02-08T19:12:42.971Z,81.91
2023-02-08T19:15:10.053Z,82.27
2023-02-08T19:17:37.164Z,82.38
2023-02-08T19:20:04.268Z,82.94
2023-02-08T19:22:31.580Z,83.14
2023-02-08T19:25:02.489Z,83.10
2023-02-08T19:27:38.721Z,83.21
2023-02-08T19:30:12.906Z,83.78
2023-02-08T19:32:50.746Z,83.59
2023-02-08T19:35:19.829Z,83.38
2023-02-08T19:37:50.389Z,83.83
2023-02-08T19:40:18.508Z,83.78
2023-02-08T19:42:45.655Z,83.85
2023-02-08T19:45:13.980Z,83.86
2023-02-08T19:47:51.592Z,84.54
2023-02-08T19:50:19.020Z,84.27
2023-02-08T19:52:46.126Z,84.59
2023-02-08T19:55:12.992Z,84.44
2023-02-08T19:57:40.442Z,85.08
2023-02-08T20:00:17.595Z,85.18
2023-02-08T20:02:48.460Z,85.16
2023-02-08T20:05:15.352Z,85.00
2023-02-08T20:07:42.246Z,84.60
2023-02-08T20:10:10.156Z,84.50
2023-02-08T20:12:37.198Z,85.52
2023-02-08T20:15:04.213Z,85.93
2023-02-08T20:17:31.160Z,86.10
2023-02-08T20:19:58.250Z,86.12
2023-02-08T20:22:25.159Z,86.17
2023-02-08T20:24:52.176Z,85.36
2023-02-08T20:27:19.377Z,84.65
2023-02-08T20:29:46.293Z,85.75
2023-02-08T20:32:13.385Z,85.76
2023-02-08T20:34:53.962Z,85.58
2023-02-08T20:37:27.062Z,85.74
2023-02-08T20:39:54.434Z,85.04
2023-02-08T20:42:21.540Z,85.37
2023-02-08T20:44:48.399Z,85.42
2023-02-08T20:47:19.218Z,84.93
2023-02-08T20:49:46.247Z,84.87
2023-02-08T20:52:13.094Z,85.15
2023-02-08T20:54:40.310Z,84.87
2023-02-08T20:57:07.361Z,84.85
2023-02-08T20:59:35.014Z,84.06
2023-02-08T21:02:02.012Z,83.60
2023-02-08T21:04:29.117Z,83.44
2023-02-08T21:06:56.048Z,83.11
2023-02-08T21:09:23.446Z,83.54
2023-02-08T21:11:51.865Z,83.70
2023-02-08T21:14:23.488Z,83.29
2023-02-08T21:16:55.939Z,83.45
2023-02-08T21:19:23.848Z,83.43
2023-02-08T21:21:52.857Z,83.93
2023-02-08T21:24:21.083Z,83.56
2023-02-08T21:26:48.017Z,83.22
2023-02-08T21:29:14.918Z,82.71
2023-02-08T21:31:42.087Z,82.43
2023-02-08T21:34:09.467Z,83.08
2023-02-08T21:36:36.379Z,83.51
2023-02-08T21:39:03.883Z,83.95
2023-02-08T21:41:33.855Z,84.11
2023-02-08T21:44:03.791Z,84.40
2023-02-08T21:46:32.427Z,85.12
2023-02-08T21:49:18.093Z,83.86
2023-02-08T21:52:03.572Z,83.62
2023-02-08T21:54:42.084Z,83.50
2023-02-08T21:57:18.723Z,83.10
2023-02-08T21:59:47.696Z,83.29
2023-02-08T22:02:26.360Z,83.38
2023-02-08T22:05:14.439Z,84.08
2023-02-08T22:07:54.321Z,84.52
2023-02-08T22:10:24.640Z,85.47
2023-02-08T22:12:52.644Z,85.61
2023-02-08T22:15:21.820Z,86.16
2023-02-08T22:17:52.514Z,86.21
2023-02-08T22:20:19.916Z,86.51
2023-02-08T22:22:46.828Z,86.62
2023-02-08T22:25:14.466Z,86.95
2023-02-08T22:27:41.458Z,87.66
2023-02-08T22:30:09.953Z,88.22
2023-02-08T22:32:40.270Z,88.33
2023-02-08T22:35:08.104Z,89.75
2023-02-08T22:37:35.660Z,89.48
2023-02-08T22:40:02.910Z,88.61
2023-02-08T22:42:30.594Z,88.04
2023-02-08T22:44:57.388Z,87.24
2023-02-08T22:47:24.690Z,87.04
2023-02-08T22:49:51.529Z,87.53
2023-02-08T22:52:18.721Z,87.25
2023-02-08T22:54:46.342Z,87.65
2023-02-08T22:57:13.319Z,87.07
2023-02-08T22:59:40.485Z,87.38
2023-02-08T23:02:07.622Z,87.82
2023-02-08T23:04:34.442Z,87.59
2023-02-08T23:07:01.464Z,87.44
2023-02-08T23:09:28.715Z,87.60
2023-02-08T23:11:55.768Z,86.94
2023-02-08T23:14:22.657Z,86.72
2023-02-08T23:16:49.670Z,87.39
2023-02-08T23:19:17.949Z,86.62
2023-02-08T23:21:46.551Z,86.95
2023-02-08T23:24:13.610Z,86.74
2023-02-08T23:26:41.039Z,87.51
2023-02-08T23:29:08.497Z,87.48
2023-02-08T23:31:35.560Z,87.75
2023-02-08T23:34:02.595Z,87.70
2023-02-08T23:36:29.547Z,88.13
2023-02-08T23:38:56.335Z,87.77
2023-02-08T23:41:24.337Z,88.19
2023-02-08T23:43:52.182Z,88.07
2023-02-08T23:46:20.964Z,88.04
2023-02-08T23:48:48.702Z,88.28
2023-02-08T23:51:17.578Z,88.88
2023-02-08T23:54:09.321Z,88.74
2023-02-08T23:56:36.506Z,88.58
2023-02-08T23:59:08.281Z,88.15
